Time;durP1;ratioP1;P1;durP2;ratioP2;P2;SDS_P1;SDS_P2;PMS_P1;PMS_P2;Temp;Humidity;BMP_temperature;BMP_pressure;BME280_temperature;BME280_humidity;BME280_pressure;Samples;Min_cycle;Max_cycle;Signal;HPM_P1;HPM_P2
2021/07/21 00:00:50;;;;;;;19.42;8.82;;;;;;;;;;5013413;28;20022;-68
2021/07/21 00:03:15;;;;;;;18.80;9.68;;;;;;;;;;4995693;28;20054;-69
2021/07/21 00:05:41;;;;;;;16.83;9.05;;;;;;;;;;4995885;28;20057;-68
2021/07/21 00:08:07;;;;;;;17.77;9.73;;;;;;;;;;5012958;28;20018;-69
2021/07/21 00:10:34;;;;;;;16.98;9.35;;;;;;;;;;5012311;28;20128;-69
2021/07/21 00:21:18;;;;;;;17.05;8.73;;;;;;;;;;5013565;28;20032;-69
2021/07/21 00:23:44;;;;;;;14.93;8.37;;;;;;;;;;5013245;28;20022;-70
2021/07/21 00:26:10;;;;;;;13.52;8.05;;;;;;;;;;5013346;28;20386;-69
2021/07/21 00:28:39;;;;;;;24.80;8.65;;;;;;;;;;5012966;28;20044;-70
2021/07/21 00:31:05;;;;;;;18.95;9.15;;;;;;;;;;4995327;28;20061;-69
2021/07/21 00:33:31;;;;;;;16.85;8.75;;;;;;;;;;5011944;28;20010;-69
2021/07/21 00:35:58;;;;;;;15.15;8.57;;;;;;;;;;5012779;28;20010;-68
2021/07/21 00:38:23;;;;;;;14.35;8.60;;;;;;;;;;5013280;28;20525;-69
2021/07/21 00:40:50;;;;;;;13.65;8.35;;;;;;;;;;5012781;28;20049;-69
2021/07/21 00:43:17;;;;;;;14.27;8.40;;;;;;;;;;5012967;28;20014;-69
2021/07/21 00:45:43;;;;;;;16.92;9.30;;;;;;;;;;4995120;28;20018;-70
2021/07/21 00:48:09;;;;;;;16.17;7.60;;;;;;;;;;5012643;28;20100;-68
2021/07/21 00:50:34;;;;;;;13.98;7.90;;;;;;;;;;5012822;28;20112;-69
2021/07/21 00:53:00;;;;;;;14.35;8.13;;;;;;;;;;4995229;28;20022;-69
2021/07/21 00:55:27;;;;;;;13.95;8.30;;;;;;;;;;5012905;28;20010;-68
2021/07/21 00:57:55;;;;;;;15.73;8.73;;;;;;;;;;5012603;28;20022;-69
2021/07/21 01:00:22;;;;;;;13.80;8.48;;;;;;;;;;5012743;28;20014;-70
2021/07/21 01:02:49;;;;;;;19.75;8.90;;;;;;;;;;5012230;28;20054;-70
2021/07/21 01:05:18;;;;;;;17.23;8.45;;;;;;;;;;5011808;28;20071;-69
2021/07/21 01:07:46;;;;;;;14.27;8.40;;;;;;;;;;5012735;28;20165;-71
2021/07/21 01:10:13;;;;;;;16.50;8.23;;;;;;;;;;5012781;28;20026;-67
2021/07/21 01:12:41;;;;;;;19.35;8.82;;;;;;;;;;5012575;28;20017;-69
2021/07/21 01:15:09;;;;;;;17.75;8.65;;;;;;;;;;5012619;28;20097;-68
2021/07/21 01:17:52;;;;;;;14.52;8.35;;;;;;;;;;5012463;28;20189;-68
2021/07/21 01:20:25;;;;;;;17.27;9.07;;;;;;;;;;5016337;28;20159;-69
2021/07/21 01:23:09;;;;;;;12.77;8.00;;;;;;;;;;5016532;28;20041;-68
2021/07/21 01:25:39;;;;;;;20.05;8.27;;;;;;;;;;5016672;28;20014;-70
2021/07/21 01:28:06;;;;;;;15.68;8.85;;;;;;;;;;5016157;28;20018;-68
2021/07/21 01:30:35;;;;;;;15.10;8.57;;;;;;;;;;5016434;28;20026;-68
2021/07/21 01:33:04;;;;;;;13.32;7.85;;;;;;;;;;5016296;28;20014;-70
2021/07/21 01:35:30;;;;;;;;;;;;;;;;;;5016761;28;20026;-69
2021/07/21 01:37:57;;;;;;;19.40;8.88;;;;;;;;;;5015835;28;19905;-69
2021/07/21 01:40:27;;;;;;;12.60;7.68;;;;;;;;;;4998549;28;20390;-68
2021/07/21 01:42:56;;;;;;;15.68;8.20;;;;;;;;;;5014758;28;20025;-68
2021/07/21 01:45:27;;;;;;;17.55;9.15;;;;;;;;;;5015188;28;20040;-70
2021/07/21 01:47:53;;;;;;;14.07;8.13;;;;;;;;;;5015720;28;20448;-70
2021/07/21 01:50:19;;;;;;;14.00;8.48;;;;;;;;;;5015846;28;20474;-71
2021/07/21 01:52:48;;;;;;;13.60;7.45;;;;;;;;;;4998260;28;20507;-69
2021/07/21 01:55:14;;;;;;;13.13;8.37;;;;;;;;;;5016038;28;20517;-69
2021/07/21 01:57:41;;;;;;;27.08;9.30;;;;;;;;;;5015829;28;20010;-68
2021/07/21 02:00:09;;;;;;;14.27;8.00;;;;;;;;;;4997964;28;20068;-69
2021/07/21 02:02:35;;;;;;;19.00;8.52;;;;;;;;;;5015515;28;20521;-69
2021/07/21 02:05:02;;;;;;;14.38;7.63;;;;;;;;;;5015599;28;20374;-69
2021/07/21 02:07:29;;;;;;;14.27;7.95;;;;;;;;;;5015574;28;20022;-70
2021/07/21 02:09:56;;;;;;;17.05;8.68;;;;;;;;;;5015306;28;20359;-68
2021/07/21 02:12:22;;;;;;;15.45;8.15;;;;;;;;;;5015611;28;20478;-69
2021/07/21 02:14:48;;;;;;;18.10;9.15;;;;;;;;;;5015381;28;20054;-69
2021/07/21 02:17:15;;;;;;;16.55;8.88;;;;;;;;;;5015580;28;20042;-70
2021/07/21 02:19:42;;;;;;;14.13;8.05;;;;;;;;;;5015174;28;20464;-69
2021/07/21 02:22:08;;;;;;;16.70;8.43;;;;;;;;;;5015204;28;20076;-70
2021/07/21 02:24:35;;;;;;;15.98;8.48;;;;;;;;;;5015360;28;20430;-68
2021/07/21 02:27:01;;;;;;;14.88;8.68;;;;;;;;;;5015227;28;20112;-69
2021/07/21 02:29:27;;;;;;;21.77;8.95;;;;;;;;;;5014688;28;20022;-70
2021/07/21 02:32:12;;;;;;;16.17;8.13;;;;;;;;;;4996421;28;20022;-70
2021/07/21 02:34:37;;;;;;;14.77;8.32;;;;;;;;;;5015076;28;20109;-69
2021/07/21 02:37:04;;;;;;;13.90;8.07;;;;;;;;;;5015084;28;20034;-68
2021/07/21 02:39:30;;;;;;;17.20;8.23;;;;;;;;;;4997346;28;20022;-69
2021/07/21 02:42:00;;;;;;;14.50;8.00;;;;;;;;;;5014665;28;20025;-68
2021/07/21 02:44:25;;;;;;;;;;;;;;;;;;5015430;28;20556;-70
2021/07/21 02:46:51;;;;;;;17.95;8.35;;;;;;;;;;4997122;28;19909;-68
2021/07/21 02:49:21;;;;;;;15.48;9.18;;;;;;;;;;5014816;28;20026;-70
2021/07/21 02:51:52;;;;;;;16.60;7.85;;;;;;;;;;5014463;28;20022;-69
2021/07/21 02:54:23;;;;;;;12.10;8.13;;;;;;;;;;5014978;28;20057;-68
2021/07/21 02:56:51;;;;;;;20.10;9.00;;;;;;;;;;5014789;28;20053;-70
2021/07/21 02:59:19;;;;;;;15.90;8.25;;;;;;;;;;5014685;28;20026;-69
2021/07/21 03:01:47;;;;;;;16.05;8.38;;;;;;;;;;5014106;28;20430;-68
2021/07/21 03:04:14;;;;;;;17.80;8.13;;;;;;;;;;5014971;28;20041;-69
2021/07/21 03:06:41;;;;;;;17.48;9.60;;;;;;;;;;5014487;28;20021;-69
2021/07/21 03:09:07;;;;;;;15.10;8.10;;;;;;;;;;4996925;28;20123;-69
2021/07/21 03:11:34;;;;;;;19.05;8.40;;;;;;;;;;5014529;28;20022;-69
2021/07/21 03:14:01;;;;;;;17.02;8.73;;;;;;;;;;5014030;28;20111;-69
2021/07/21 03:16:31;;;;;;;22.50;9.10;;;;;;;;;;5013310;28;20044;-69
2021/07/21 03:18:59;;;;;;;14.98;8.63;;;;;;;;;;5014211;28;20029;-68
2021/07/21 03:21:26;;;;;;;18.35;8.77;;;;;;;;;;5014253;28;20478;-69
2021/07/21 03:23:53;;;;;;;15.55;8.40;;;;;;;;;;5014088;28;20014;-70
2021/07/21 03:26:20;;;;;;;17.73;8.60;;;;;;;;;;5014152;28;20022;-69
2021/07/21 03:28:47;;;;;;;17.08;8.85;;;;;;;;;;5013701;28;20136;-69
2021/07/21 03:31:13;;;;;;;12.82;7.53;;;;;;;;;;4996480;28;20018;-69
2021/07/21 03:33:42;;;;;;;13.43;8.05;;;;;;;;;;5013818;28;20549;-68
2021/07/21 03:36:09;;;;;;;16.30;9.40;;;;;;;;;;4996224;28;20467;-70
2021/07/21 03:38:36;;;;;;;18.65;8.98;;;;;;;;;;5014067;28;20429;-70
2021/07/21 03:41:02;;;;;;;14.48;8.88;;;;;;;;;;5013443;28;20049;-69
2021/07/21 03:43:29;;;;;;;14.45;9.07;;;;;;;;;;5013858;28;20026;-69
2021/07/21 03:45:58;;;;;;;16.25;9.65;;;;;;;;;;5013508;28;20167;-69
2021/07/21 03:48:24;;;;;;;18.70;8.70;;;;;;;;;;5013767;28;20494;-68
2021/07/21 03:50:53;;;;;;;17.17;9.40;;;;;;;;;;5013631;28;20022;-68
2021/07/21 03:53:19;;;;;;;17.83;10.33;;;;;;;;;;5013855;28;20100;-69
2021/07/21 03:55:45;;;;;;;16.58;9.57;;;;;;;;;;5013591;28;20050;-69
2021/07/21 03:58:12;;;;;;;24.65;10.57;;;;;;;;;;5013454;28;20561;-69
2021/07/21 04:00:38;;;;;;;24.17;10.95;;;;;;;;;;5013606;28;20018;-69
2021/07/21 04:03:06;;;;;;;21.27;11.65;;;;;;;;;;4992848;28;20050;-69
2021/07/21 04:05:32;;;;;;;21.30;10.52;;;;;;;;;;5013625;28;20478;-69
2021/07/21 04:07:59;;;;;;;29.15;11.02;;;;;;;;;;5013068;28;20029;-70
2021/07/21 04:10:27;;;;;;;19.15;10.77;;;;;;;;;;5013470;28;20026;-70
2021/07/21 04:12:54;;;;;;;21.17;10.73;;;;;;;;;;4995695;28;20029;-69
2021/07/21 04:15:21;;;;;;;17.13;9.73;;;;;;;;;;5013542;28;20028;-69
2021/07/21 04:17:48;;;;;;;20.35;10.57;;;;;;;;;;5013059;28;20017;-69
2021/07/21 04:20:15;;;;;;;21.60;10.13;;;;;;;;;;5013327;28;20498;-69
2021/07/21 04:22:41;;;;;;;18.98;10.35;;;;;;;;;;5013345;28;20053;-68
2021/07/21 04:25:10;;;;;;;22.65;10.45;;;;;;;;;;5013005;28;20057;-70
2021/07/21 04:27:35;;;;;;;23.60;9.97;;;;;;;;;;5013234;28;20032;-69
2021/07/21 04:30:03;;;;;;;18.23;10.15;;;;;;;;;;5012785;28;20054;-68
2021/07/21 04:32:30;;;;;;;25.98;10.65;;;;;;;;;;5013221;28;20025;-69
2021/07/21 04:34:56;;;;;;;20.95;10.90;;;;;;;;;;5012992;28;20025;-69
2021/07/21 04:37:23;;;;;;;25.58;11.32;;;;;;;;;;5013006;28;20021;-69
2021/07/21 04:39:50;;;;;;;22.05;11.68;;;;;;;;;;5012518;28;20464;-70
2021/07/21 04:42:17;;;;;;;16.70;10.60;;;;;;;;;;4995743;28;20475;-70
2021/07/21 04:44:44;;;;;;;17.67;11.50;;;;;;;;;;5013135;28;20053;-69
2021/07/21 04:47:12;;;;;;;20.02;11.35;;;;;;;;;;5013127;28;20478;-69
2021/07/21 04:49:38;;;;;;;21.60;10.55;;;;;;;;;;5013082;28;20038;-69
2021/07/21 04:52:04;;;;;;;16.60;10.23;;;;;;;;;;5012821;28;20060;-70
2021/07/21 04:54:31;;;;;;;17.83;9.85;;;;;;;;;;5011947;28;20053;-69
2021/07/21 04:56:57;;;;;;;15.13;10.13;;;;;;;;;;5012694;28;20014;-69
2021/07/21 04:59:24;;;;;;;16.58;9.27;;;;;;;;;;4995274;28;20402;-71
2021/07/21 05:01:51;;;;;;;16.25;8.57;;;;;;;;;;5012282;28;20063;-71
2021/07/21 05:04:17;;;;;;;17.80;8.70;;;;;;;;;;5012851;28;20037;-70
2021/07/21 05:06:46;;;;;;;14.70;8.65;;;;;;;;;;5012674;28;20033;-69
2021/07/21 05:09:13;;;;;;;12.15;7.75;;;;;;;;;;5012466;28;20026;-70
2021/07/21 05:11:40;;;;;;;15.13;8.35;;;;;;;;;;5011524;28;20048;-71
2021/07/21 05:14:06;;;;;;;12.48;8.18;;;;;;;;;;5012780;28;20105;-69
2021/07/21 05:16:34;;;;;;;13.63;7.75;;;;;;;;;;5012652;28;20029;-69
2021/07/21 05:18:59;;;;;;;16.43;8.30;;;;;;;;;;5012339;28;20079;-69
2021/07/21 05:21:27;;;;;;;11.02;8.10;;;;;;;;;;5012723;28;20267;-70
2021/07/21 05:23:53;;;;;;;12.82;8.23;;;;;;;;;;5012393;28;20018;-69
2021/07/21 05:26:20;;;;;;;11.25;8.02;;;;;;;;;;5012929;28;20026;-69
2021/07/21 05:28:45;;;;;;;12.55;8.00;;;;;;;;;;5012370;28;20108;-69
2021/07/21 05:31:12;;;;;;;16.35;9.02;;;;;;;;;;5012871;28;20116;-69
2021/07/21 05:33:38;;;;;;;12.80;8.85;;;;;;;;;;5012557;28;20528;-69
2021/07/21 05:36:04;;;;;;;14.30;7.22;;;;;;;;;;5012227;28;20322;-69
2021/07/21 05:38:30;;;;;;;11.32;8.25;;;;;;;;;;5011964;28;20025;-69
2021/07/21 05:40:56;;;;;;;16.05;7.93;;;;;;;;;;5012378;28;20022;-71
2021/07/21 05:43:23;;;;;;;14.00;8.43;;;;;;;;;;5012181;28;20061;-69
2021/07/21 05:45:49;;;;;;;15.68;8.90;;;;;;;;;;5011274;28;20018;-70
2021/07/21 05:48:16;;;;;;;12.52;8.43;;;;;;;;;;5012301;28;20044;-69
2021/07/21 05:50:41;;;;;;;14.43;7.93;;;;;;;;;;5012320;28;20014;-68
2021/07/21 05:53:09;;;;;;;10.45;7.22;;;;;;;;;;5008880;28;20022;-70
2021/07/21 05:55:35;;;;;;;11.90;7.30;;;;;;;;;;5011197;28;20080;-70
2021/07/21 05:58:00;;;;;;;11.73;7.18;;;;;;;;;;4975312;28;20053;-69
2021/07/21 06:00:26;;;;;;;10.82;7.15;;;;;;;;;;5009896;28;20033;-68
2021/07/21 06:02:51;;;;;;;13.20;7.25;;;;;;;;;;4999797;28;20041;-70
2021/07/21 06:05:17;;;;;;;11.30;6.88;;;;;;;;;;5006457;28;20069;-70
2021/07/21 06:07:42;;;;;;;14.68;7.43;;;;;;;;;;5015443;28;20025;-69
2021/07/21 06:10:08;;;;;;;12.18;6.70;;;;;;;;;;5015381;28;20029;-71
2021/07/21 06:12:34;;;;;;;10.73;7.38;;;;;;;;;;5005262;28;20080;-70
2021/07/21 06:15:00;;;;;;;10.80;7.65;;;;;;;;;;5007173;28;20552;-69
2021/07/21 06:17:25;;;;;;;10.90;6.80;;;;;;;;;;5015539;28;20030;-70
2021/07/21 06:19:50;;;;;;;11.20;7.13;;;;;;;;;;5014376;28;20497;-71
2021/07/21 06:22:18;;;;;;;10.40;7.30;;;;;;;;;;5014916;28;20487;-70
2021/07/21 06:24:45;;;;;;;12.95;6.95;;;;;;;;;;4997584;28;20105;-70
2021/07/21 06:27:10;;;;;;;10.52;6.55;;;;;;;;;;5014747;28;20017;-70
2021/07/21 06:29:36;;;;;;;12.60;8.00;;;;;;;;;;5015119;28;20508;-70
2021/07/21 06:32:01;;;;;;;14.73;8.00;;;;;;;;;;5014784;28;20048;-71
2021/07/21 06:34:26;;;;;;;9.43;7.10;;;;;;;;;;5006773;28;20026;-69
2021/07/21 06:36:52;;;;;;;11.07;6.80;;;;;;;;;;4998861;28;20025;-71
2021/07/21 06:39:18;;;;;;;12.13;6.90;;;;;;;;;;5006155;28;20022;-71
2021/07/21 06:41:43;;;;;;;10.45;7.28;;;;;;;;;;4995516;28;20065;-68
2021/07/21 06:44:09;;;;;;;9.90;6.65;;;;;;;;;;4982049;28;20474;-70
2021/07/21 06:46:34;;;;;;;22.17;7.90;;;;;;;;;;5015022;28;20436;-70
2021/07/21 06:49:00;;;;;;;10.13;6.50;;;;;;;;;;5014678;28;20079;-71
2021/07/21 06:51:25;;;;;;;11.07;6.85;;;;;;;;;;5014418;28;20394;-70
2021/07/21 06:53:51;;;;;;;10.90;6.70;;;;;;;;;;5012510;28;20029;-68
2021/07/21 06:56:16;;;;;;;13.40;6.97;;;;;;;;;;5014179;28;20022;-69
2021/07/21 06:58:42;;;;;;;11.70;6.93;;;;;;;;;;5014289;28;20018;-70
2021/07/21 07:01:07;;;;;;;11.60;7.05;;;;;;;;;;5015370;28;20032;-72
2021/07/21 07:03:33;;;;;;;9.55;6.45;;;;;;;;;;5013442;28;20057;-72
2021/07/21 07:05:59;;;;;;;8.57;6.00;;;;;;;;;;4991096;28;20029;-70
2021/07/21 07:08:25;;;;;;;9.77;6.25;;;;;;;;;;5008922;28;20033;-70
2021/07/21 07:10:51;;;;;;;9.15;6.38;;;;;;;;;;5000623;28;20014;-69
2021/07/21 07:13:17;;;;;;;9.75;6.25;;;;;;;;;;5011679;28;20068;-70
2021/07/21 07:15:43;;;;;;;10.70;6.72;;;;;;;;;;5013066;28;20014;-69
2021/07/21 07:18:14;;;;;;;10.65;6.75;;;;;;;;;;5005796;28;20080;-71
2021/07/21 07:20:40;;;;;;;9.07;5.80;;;;;;;;;;5005581;28;20043;-71
2021/07/21 07:23:05;;;;;;;8.82;6.38;;;;;;;;;;5008082;28;20524;-71
2021/07/21 07:25:32;;;;;;;10.88;6.57;;;;;;;;;;5009264;28;20022;-71
2021/07/21 07:27:58;;;;;;;10.57;6.53;;;;;;;;;;5006403;28;20018;-71
2021/07/21 07:30:24;;;;;;;10.77;6.93;;;;;;;;;;5013027;28;20026;-72
2021/07/21 07:32:50;;;;;;;9.18;6.40;;;;;;;;;;4994865;28;20382;-71
2021/07/21 07:35:15;;;;;;;8.93;6.40;;;;;;;;;;5012358;28;20116;-71
2021/07/21 07:37:42;;;;;;;10.85;6.25;;;;;;;;;;5007848;28;20040;-69
2021/07/21 07:40:07;;;;;;;11.27;6.43;;;;;;;;;;4996434;28;20033;-69
2021/07/21 07:42:33;;;;;;;8.40;5.88;;;;;;;;;;5013599;28;20014;-69
2021/07/21 07:45:00;;;;;;;11.52;6.43;;;;;;;;;;5013624;28;20022;-70
2021/07/21 07:47:25;;;;;;;9.10;5.93;;;;;;;;;;5013357;28;20100;-69
2021/07/21 07:49:51;;;;;;;12.10;7.13;;;;;;;;;;5009136;28;20063;-69
2021/07/21 07:52:17;;;;;;;9.60;5.55;;;;;;;;;;4968696;28;20491;-70
2021/07/21 07:54:43;;;;;;;10.77;6.25;;;;;;;;;;5008756;28;20113;-69
2021/07/21 07:57:10;;;;;;;7.45;5.55;;;;;;;;;;5013439;28;20022;-68
2021/07/21 07:59:36;;;;;;;8.70;6.15;;;;;;;;;;5013536;28;20029;-69
2021/07/21 08:02:02;;;;;;;9.18;5.93;;;;;;;;;;5012417;28;20016;-70
2021/07/21 08:04:27;;;;;;;8.32;6.35;;;;;;;;;;5013290;28;20018;-69
2021/07/21 08:06:53;;;;;;;9.93;5.90;;;;;;;;;;5006193;28;20029;-70
2021/07/21 08:09:18;;;;;;;8.63;5.90;;;;;;;;;;4995260;28;20034;-69
2021/07/21 08:11:45;;;;;;;7.97;6.38;;;;;;;;;;4995675;28;20057;-70
2021/07/21 08:14:11;;;;;;;8.82;5.95;;;;;;;;;;4995814;28;20025;-69
2021/07/21 08:16:37;;;;;;;10.13;6.22;;;;;;;;;;5013317;28;20010;-69
2021/07/21 08:19:02;;;;;;;11.35;6.55;;;;;;;;;;5009080;28;20018;-69
2021/07/21 08:21:29;;;;;;;11.77;6.20;;;;;;;;;;4985988;28;20084;-69
2021/07/21 08:23:54;;;;;;;10.27;6.20;;;;;;;;;;4999006;28;20038;-69
2021/07/21 08:26:19;;;;;;;10.35;6.00;;;;;;;;;;5005016;28;20011;-70
2021/07/21 08:28:45;;;;;;;8.82;5.25;;;;;;;;;;5000705;28;20029;-69
2021/07/21 08:31:10;;;;;;;8.68;5.65;;;;;;;;;;5004500;28;20026;-70
2021/07/21 08:33:36;;;;;;;10.65;5.90;;;;;;;;;;5012937;28;20101;-69
2021/07/21 08:36:02;;;;;;;6.60;4.93;;;;;;;;;;5012369;28;20066;-70
2021/07/21 08:38:27;;;;;;;8.73;5.55;;;;;;;;;;5013057;28;20034;-70
2021/07/21 08:40:54;;;;;;;7.95;5.50;;;;;;;;;;5012903;28;20085;-70
2021/07/21 08:43:27;;;;;;;10.15;6.75;;;;;;;;;;4991327;28;20018;-69
2021/07/21 08:45:54;;;;;;;8.60;5.93;;;;;;;;;;5011640;28;20016;-68
2021/07/21 08:48:20;;;;;;;8.82;6.07;;;;;;;;;;4991301;28;20106;-70
2021/07/21 08:50:46;;;;;;;9.05;6.03;;;;;;;;;;4990608;28;20041;-69
2021/07/21 08:53:13;;;;;;;9.50;5.90;;;;;;;;;;5013142;28;20014;-70
2021/07/21 08:55:40;;;;;;;8.95;5.63;;;;;;;;;;5012959;28;20025;-70
2021/07/21 08:58:06;;;;;;;8.27;5.25;;;;;;;;;;5012451;28;20076;-69
2021/07/21 09:00:36;;;;;;;10.75;5.90;;;;;;;;;;5013117;28;20049;-70
2021/07/21 09:03:02;;;;;;;6.40;4.85;;;;;;;;;;5012501;28;20104;-70
2021/07/21 09:05:28;;;;;;;7.07;4.35;;;;;;;;;;5012763;28;20025;-68
2021/07/21 09:07:54;;;;;;;5.30;3.97;;;;;;;;;;5012466;28;20105;-70
2021/07/21 09:10:20;;;;;;;8.93;4.15;;;;;;;;;;5012768;28;20026;-68
2021/07/21 09:12:48;;;;;;;9.00;4.65;;;;;;;;;;4994961;28;20371;-70
2021/07/21 09:15:16;;;;;;;6.03;5.15;;;;;;;;;;5012988;28;20101;-70
2021/07/21 09:18:33;;;;;;;;;;;;;;;;;;;;;
2021/07/21 09:21:07;;;;;;;6.80;4.97;;;;;;;;;;4997018;28;20057;-69
2021/07/21 09:23:37;;;;;;;8.65;5.03;;;;;;;;;;4994984;28;20036;-68
2021/07/21 09:26:03;;;;;;;8.93;5.47;;;;;;;;;;5012362;28;20021;-68
2021/07/21 09:28:37;;;;;;;6.10;4.75;;;;;;;;;;4994945;28;20488;-68
2021/07/21 09:31:04;;;;;;;8.45;5.25;;;;;;;;;;5012485;28;20094;-68
2021/07/21 09:33:29;;;;;;;11.32;5.03;;;;;;;;;;5012772;28;20022;-68
2021/07/21 09:35:57;;;;;;;8.50;5.53;;;;;;;;;;5012310;28;20036;-67
2021/07/21 09:38:25;;;;;;;5.60;4.10;;;;;;;;;;5012728;28;20041;-68
2021/07/21 09:40:53;;;;;;;8.23;4.45;;;;;;;;;;5015264;28;20013;-69
2021/07/21 09:43:20;;;;;;;4.82;4.13;;;;;;;;;;5016277;28;20486;-69
2021/07/21 09:45:47;;;;;;;7.35;4.53;;;;;;;;;;5016144;28;20018;-68
2021/07/21 09:48:13;;;;;;;5.68;4.50;;;;;;;;;;4994718;28;20065;-69
2021/07/21 09:50:41;;;;;;;6.95;4.10;;;;;;;;;;5013379;28;20052;-68
2021/07/21 09:53:12;;;;;;;6.10;4.18;;;;;;;;;;5015987;28;20021;-67
2021/07/21 09:55:39;;;;;;;7.90;5.05;;;;;;;;;;4994721;28;20097;-68
2021/07/21 09:58:06;;;;;;;9.95;5.10;;;;;;;;;;5011406;28;20055;-68
2021/07/21 10:00:34;;;;;;;7.78;4.70;;;;;;;;;;5016265;28;20013;-68
2021/07/21 10:03:10;;;;;;;5.93;4.63;;;;;;;;;;5015813;28;20157;-67
2021/07/21 10:05:50;;;;;;;7.57;4.43;;;;;;;;;;5015942;28;20392;-68
2021/07/21 10:08:34;;;;;;;8.07;4.40;;;;;;;;;;5015666;28;20498;-69
2021/07/21 10:11:19;;;;;;;6.10;4.55;;;;;;;;;;5015720;28;20029;-67
2021/07/21 10:13:44;;;;;;;6.05;4.65;;;;;;;;;;5016024;28;20383;-69
2021/07/21 10:16:11;;;;;;;6.47;4.22;;;;;;;;;;5015552;28;20020;-69
2021/07/21 10:18:37;;;;;;;5.55;4.38;;;;;;;;;;5015700;28;20084;-68
2021/07/21 10:21:03;;;;;;;7.35;4.85;;;;;;;;;;4997862;28;20014;-68
2021/07/21 10:23:29;;;;;;;10.15;4.45;;;;;;;;;;5015720;28;20080;-69
2021/07/21 10:25:55;;;;;;;5.75;4.15;;;;;;;;;;5015226;28;20021;-69
2021/07/21 10:28:22;;;;;;;7.43;4.85;;;;;;;;;;5015777;28;20105;-68
2021/07/21 10:30:47;;;;;;;5.75;4.47;;;;;;;;;;5013996;28;20018;-69
2021/07/21 10:33:13;;;;;;;7.35;5.00;;;;;;;;;;5014263;28;20033;-68
2021/07/21 10:35:38;;;;;;;11.30;4.97;;;;;;;;;;5015252;28;20119;-68
2021/07/21 10:38:04;;;;;;;6.53;4.43;;;;;;;;;;5014841;28;20018;-67
2021/07/21 10:40:32;;;;;;;8.02;4.18;;;;;;;;;;5015111;28;20049;-68
2021/07/21 10:42:58;;;;;;;6.40;4.43;;;;;;;;;;4997794;28;20077;-67
2021/07/21 10:45:32;;;;;;;6.32;4.30;;;;;;;;;;4997581;28;20482;-68
2021/07/21 10:48:08;;;;;;;8.43;4.68;;;;;;;;;;5014200;28;20026;-69
2021/07/21 10:50:58;;;;;;;5.07;3.78;;;;;;;;;;5014570;28;20030;-68
2021/07/21 10:53:40;;;;;;;7.40;4.32;;;;;;;;;;5007856;28;20018;-68
2021/07/21 10:59:13;;;;;;;8.88;4.32;;;;;;;;;;5000399;28;20395;-68
2021/07/21 11:01:40;;;;;;;7.80;4.50;;;;;;;;;;5014655;28;20014;-69
2021/07/21 11:04:05;;;;;;;5.50;4.43;;;;;;;;;;5014450;28;20065;-68
2021/07/21 11:06:41;;;;;;;5.57;4.38;;;;;;;;;;4997086;28;20022;-69
2021/07/21 11:09:25;;;;;;;8.48;4.55;;;;;;;;;;5014084;28;20116;-67
2021/07/21 11:11:54;;;;;;;7.93;5.35;;;;;;;;;;5007456;28;20830;-68
2021/07/21 11:14:22;;;;;;;6.38;4.32;;;;;;;;;;4988281;28;20026;-69
2021/07/21 11:16:51;;;;;;;6.57;4.35;;;;;;;;;;5014297;28;20351;-68
2021/07/21 11:19:39;;;;;;;6.38;3.97;;;;;;;;;;4996260;28;20022;-69
2021/07/21 11:22:07;;;;;;;6.45;4.32;;;;;;;;;;4996537;28;20088;-69
2021/07/21 11:24:52;;;;;;;6.18;4.00;;;;;;;;;;5014283;28;20466;-69
2021/07/21 11:27:36;;;;;;;7.53;4.80;;;;;;;;;;5013880;28;20100;-68
2021/07/21 11:30:02;;;;;;;9.63;4.53;;;;;;;;;;5009369;28;20033;-69
2021/07/21 11:32:29;;;;;;;6.57;5.05;;;;;;;;;;5008514;28;20153;-68
2021/07/21 11:34:55;;;;;;;6.53;4.75;;;;;;;;;;5013642;28;20478;-68
2021/07/21 11:37:28;;;;;;;5.93;4.10;;;;;;;;;;5014051;28;20032;-69
2021/07/21 11:39:55;;;;;;;6.68;5.22;;;;;;;;;;5013797;28;20014;-70
2021/07/21 11:42:35;;;;;;;5.72;4.30;;;;;;;;;;5013623;28;20105;-70
2021/07/21 11:45:05;;;;;;;11.07;5.00;;;;;;;;;;5013861;28;20018;-70
2021/07/21 11:47:34;;;;;;;6.82;4.75;;;;;;;;;;4996236;28;20417;-67
2021/07/21 11:50:01;;;;;;;6.82;4.63;;;;;;;;;;5013262;28;20034;-69
2021/07/21 11:52:27;;;;;;;6.60;4.43;;;;;;;;;;5013837;28;20067;-69
2021/07/21 11:54:53;;;;;;;9.05;4.82;;;;;;;;;;5013573;28;20017;-68
2021/07/21 11:57:26;;;;;;;7.93;4.95;;;;;;;;;;5013346;28;20029;-70
2021/07/21 11:59:53;;;;;;;8.75;4.78;;;;;;;;;;5012679;28;20050;-69
2021/07/21 12:02:19;;;;;;;7.93;4.75;;;;;;;;;;4995841;28;20128;-69
2021/07/21 12:04:46;;;;;;;7.20;5.18;;;;;;;;;;5013158;28;20378;-70
2021/07/21 12:07:12;;;;;;;6.55;4.78;;;;;;;;;;5013411;28;20090;-69
2021/07/21 12:09:39;;;;;;;7.70;4.95;;;;;;;;;;5011193;28;20025;-69
2021/07/21 12:12:08;;;;;;;6.78;4.95;;;;;;;;;;5012019;28;20018;-69
2021/07/21 12:14:34;;;;;;;7.78;4.55;;;;;;;;;;4994627;28;20021;-69
2021/07/21 12:17:08;;;;;;;8.60;4.72;;;;;;;;;;5012360;28;20368;-69
2021/07/21 12:19:35;;;;;;;6.15;5.28;;;;;;;;;;5011925;28;20048;-69
2021/07/21 12:22:08;;;;;;;6.15;4.88;;;;;;;;;;5012111;28;20032;-69
2021/07/21 12:24:42;;;;;;;7.25;5.10;;;;;;;;;;5012051;28;20028;-68
2021/07/21 12:27:08;;;;;;;8.05;5.43;;;;;;;;;;5010035;28;20032;-70
2021/07/21 12:29:34;;;;;;;6.18;5.13;;;;;;;;;;4988865;28;20498;-68
2021/07/21 12:32:18;;;;;;;8.43;4.78;;;;;;;;;;4990656;28;20034;-70
2021/07/21 12:34:47;;;;;;;6.40;4.95;;;;;;;;;;4994926;28;20024;-69
2021/07/21 12:37:14;;;;;;;7.65;5.15;;;;;;;;;;5011895;28;20014;-71
2021/07/21 12:39:40;;;;;;;7.50;4.65;;;;;;;;;;5012124;28;20551;-71
2021/07/21 12:42:08;;;;;;;6.60;4.90;;;;;;;;;;5012178;28;20498;-69
2021/07/21 12:44:37;;;;;;;6.78;4.85;;;;;;;;;;5012803;28;20018;-69
2021/07/21 12:47:10;;;;;;;7.22;4.80;;;;;;;;;;4979159;28;20033;-69
2021/07/21 12:49:37;;;;;;;6.75;5.00;;;;;;;;;;5012419;28;20034;-70
2021/07/21 12:52:03;;;;;;;6.90;4.82;;;;;;;;;;5012318;28;20014;-71
2021/07/21 12:54:29;;;;;;;5.68;4.88;;;;;;;;;;5012973;28;20025;-70
2021/07/21 12:56:55;;;;;;;6.00;4.68;;;;;;;;;;5012296;28;20014;-69
2021/07/21 12:59:32;;;;;;;5.65;4.47;;;;;;;;;;5012720;28;20544;-70
2021/07/21 13:02:08;;;;;;;6.28;4.68;;;;;;;;;;5011666;28;20021;-68
2021/07/21 13:04:34;;;;;;;7.43;4.97;;;;;;;;;;5008191;28;20073;-71
2021/07/21 13:07:03;;;;;;;6.80;4.68;;;;;;;;;;5012202;28;20427;-70
2021/07/21 13:09:29;;;;;;;8.10;5.20;;;;;;;;;;5010204;28;20029;-70
2021/07/21 13:11:54;;;;;;;6.68;5.18;;;;;;;;;;5009963;28;20527;-68
2021/07/21 13:14:20;;;;;;;6.65;5.28;;;;;;;;;;5011568;28;20383;-69
2021/07/21 13:16:45;;;;;;;8.10;5.25;;;;;;;;;;4997514;28;20093;-70
2021/07/21 13:19:13;;;;;;;9.55;5.03;;;;;;;;;;5013725;28;20057;-69
2021/07/21 13:21:47;;;;;;;9.40;5.00;;;;;;;;;;5014654;28;20026;-69
2021/07/21 13:24:20;;;;;;;5.57;4.10;;;;;;;;;;4993549;28;20082;-70
2021/07/21 13:27:05;;;;;;;11.20;5.22;;;;;;;;;;5008358;28;20042;-68
2021/07/21 13:29:32;;;;;;;7.10;4.85;;;;;;;;;;5014701;28;20030;-69
2021/07/21 13:31:58;;;;;;;8.07;5.10;;;;;;;;;;4997579;28;20063;-70
2021/07/21 13:34:30;;;;;;;8.50;5.18;;;;;;;;;;5015087;28;20484;-70
2021/07/21 13:36:56;;;;;;;7.13;5.13;;;;;;;;;;5000983;28;20029;-67
2021/07/21 13:39:23;;;;;;;6.90;5.15;;;;;;;;;;5011888;28;20029;-71
2021/07/21 13:41:51;;;;;;;5.13;4.63;;;;;;;;;;5014662;28;20496;-66
2021/07/21 13:44:19;;;;;;;6.57;4.70;;;;;;;;;;5015203;28;20026;-70
2021/07/21 13:46:48;;;;;;;6.53;4.30;;;;;;;;;;5014724;28;20049;-69
2021/07/21 13:49:14;;;;;;;6.38;4.20;;;;;;;;;;5011872;28;20029;-70
2021/07/21 13:51:41;;;;;;;8.77;5.28;;;;;;;;;;4998059;28;20542;-68
2021/07/21 13:54:24;;;;;;;8.10;4.97;;;;;;;;;;5014300;28;20021;-70
2021/07/21 13:56:51;;;;;;;8.85;4.68;;;;;;;;;;5015204;28;20494;-68
2021/07/21 13:59:16;;;;;;;10.15;4.68;;;;;;;;;;5015804;28;20036;-69
2021/07/21 14:01:42;;;;;;;4.28;3.33;;;;;;;;;;5012138;28;20010;-67
2021/07/21 14:04:09;;;;;;;5.53;3.60;;;;;;;;;;5014881;28;20498;-68
2021/07/21 14:06:35;;;;;;;4.22;3.38;;;;;;;;;;5015798;28;20449;-68
2021/07/21 14:09:00;;;;;;;4.97;3.97;;;;;;;;;;5013202;28;20038;-68
2021/07/21 14:11:27;;;;;;;7.75;4.63;;;;;;;;;;4996180;28;20494;-67
2021/07/21 14:13:53;;;;;;;6.10;4.80;;;;;;;;;;5014037;28;20401;-68
2021/07/21 14:16:19;;;;;;;6.32;4.70;;;;;;;;;;5014826;28;20105;-70
2021/07/21 14:18:44;;;;;;;5.93;4.50;;;;;;;;;;5013863;28;20028;-70
2021/07/21 14:21:10;;;;;;;9.07;4.80;;;;;;;;;;5015076;28;20022;-70
2021/07/21 14:23:37;;;;;;;8.27;4.97;;;;;;;;;;5014013;28;20053;-70
2021/07/21 14:26:04;;;;;;;9.75;5.50;;;;;;;;;;5014246;28;20433;-68
2021/07/21 14:28:30;;;;;;;6.32;5.13;;;;;;;;;;5014433;28;20025;-66
2021/07/21 14:30:55;;;;;;;7.43;5.07;;;;;;;;;;5014181;28;20042;-68
2021/07/21 14:33:21;;;;;;;7.00;5.13;;;;;;;;;;5015053;28;20057;-69
2021/07/21 14:35:46;;;;;;;7.88;5.35;;;;;;;;;;5014690;28;20041;-69
2021/07/21 14:38:12;;;;;;;7.68;4.97;;;;;;;;;;5015224;28;20433;-69
2021/07/21 14:40:38;;;;;;;7.38;4.95;;;;;;;;;;5015191;28;20445;-69
2021/07/21 14:43:04;;;;;;;10.70;5.60;;;;;;;;;;5015011;28;20044;-70
2021/07/21 14:45:30;;;;;;;8.63;5.35;;;;;;;;;;5015366;28;20390;-69
2021/07/21 14:47:56;;;;;;;7.68;5.18;;;;;;;;;;5015105;28;20026;-70
2021/07/21 14:50:23;;;;;;;6.43;3.25;;;;;;;;;;5014964;28;20474;-70